sensor_id;sensor_type;location;lat;lon;timestamp;P1;durP1;ratioP1;P2;durP2;ratioP2
3095;SDS011;1558;42.700;23.360;2024-02-16T00:00:19;30.73;;;22.97;;
3095;SDS011;1558;42.700;23.360;2024-02-16T00:02:47;28.77;;;23.67;;
3095;SDS011;1558;42.700;23.360;2024-02-16T00:05:17;29.20;;;23.03;;
3095;SDS011;1558;42.700;23.360;2024-02-16T00:07:45;29.30;;;23.10;;
3095;SDS011;1558;42.700;23.360;2024-02-16T00:10:13;31.23;;;23.37;;
3095;SDS011;1558;42.700;23.360;2024-02-16T00:12:44;27.50;;;21.37;;
3095;SDS011;1558;42.700;23.360;2024-02-16T00:15:12;26.93;;;21.70;;
3095;SDS011;1558;42.700;23.360;2024-02-16T00:17:41;21.17;;;17.00;;
3095;SDS011;1558;42.700;23.360;2024-02-16T00:20:09;19.17;;;16.47;;
3095;SDS011;1558;42.700;23.360;2024-02-16T00:22:40;19.97;;;15.70;;
3095;SDS011;1558;42.700;23.360;2024-02-16T00:25:08;19.20;;;16.20;;
3095;SDS011;1558;42.700;23.360;2024-02-16T00:27:36;21.03;;;16.37;;
3095;SDS011;1558;42.700;23.360;2024-02-16T00:30:05;19.93;;;15.93;;
3095;SDS011;1558;42.700;23.360;2024-02-16T00:32:36;16.77;;;14.43;;
3095;SDS011;1558;42.700;23.360;2024-02-16T00:35:05;19.23;;;15.67;;
3095;SDS011;1558;42.700;23.360;2024-02-16T00:37:33;17.67;;;14.53;;
3095;SDS011;1558;42.700;23.360;2024-02-16T00:40:03;17.97;;;15.33;;
3095;SDS011;1558;42.700;23.360;2024-02-16T00:42:33;16.90;;;14.87;;
3095;SDS011;1558;42.700;23.360;2024-02-16T00:45:01;16.63;;;14.00;;
3095;SDS011;1558;42.700;23.360;2024-02-16T00:47:30;16.60;;;13.57;;
3095;SDS011;1558;42.700;23.360;2024-02-16T00:49:59;16.87;;;14.20;;
3095;SDS011;1558;42.700;23.360;2024-02-16T00:52:28;18.23;;;13.93;;
3095;SDS011;1558;42.700;23.360;2024-02-16T00:54:56;15.40;;;13.63;;
3095;SDS011;1558;42.700;23.360;2024-02-16T00:57:26;17.60;;;13.20;;
3095;SDS011;1558;42.700;23.360;2024-02-16T00:59:54;18.10;;;13.57;;
3095;SDS011;1558;42.700;23.360;2024-02-16T01:02:23;16.97;;;13.13;;
3095;SDS011;1558;42.700;23.360;2024-02-16T01:04:55;15.73;;;13.73;;
3095;SDS011;1558;42.700;23.360;2024-02-16T01:07:28;16.37;;;12.80;;
3095;SDS011;1558;42.700;23.360;2024-02-16T01:09:57;15.57;;;12.67;;
3095;SDS011;1558;42.700;23.360;2024-02-16T01:12:27;13.57;;;12.17;;
3095;SDS011;1558;42.700;23.360;2024-02-16T01:14:57;16.03;;;12.50;;
3095;SDS011;1558;42.700;23.360;2024-02-16T01:17:26;17.30;;;12.67;;
3095;SDS011;1558;42.700;23.360;2024-02-16T01:19:54;15.57;;;13.40;;
3095;SDS011;1558;42.700;23.360;2024-02-16T01:22:23;16.27;;;13.87;;
3095;SDS011;1558;42.700;23.360;2024-02-16T01:24:51;17.70;;;13.33;;
3095;SDS011;1558;42.700;23.360;2024-02-16T01:27:19;18.27;;;14.43;;
3095;SDS011;1558;42.700;23.360;2024-02-16T01:29:49;17.10;;;14.03;;
3095;SDS011;1558;42.700;23.360;2024-02-16T01:32:17;15.63;;;13.00;;
3095;SDS011;1558;42.700;23.360;2024-02-16T01:34:45;15.30;;;13.13;;
3095;SDS011;1558;42.700;23.360;2024-02-16T01:37:16;16.77;;;13.17;;
3095;SDS011;1558;42.700;23.360;2024-02-16T01:39:44;17.97;;;14.73;;
3095;SDS011;1558;42.700;23.360;2024-02-16T01:42:12;16.17;;;14.47;;
3095;SDS011;1558;42.700;23.360;2024-02-16T01:44:40;17.53;;;14.93;;
3095;SDS011;1558;42.700;23.360;2024-02-16T01:47:27;17.40;;;14.87;;
3095;SDS011;1558;42.700;23.360;2024-02-16T01:49:56;19.33;;;15.93;;
3095;SDS011;1558;42.700;23.360;2024-02-16T01:52:25;20.23;;;15.03;;
3095;SDS011;1558;42.700;23.360;2024-02-16T01:54:53;21.90;;;17.17;;
3095;SDS011;1558;42.700;23.360;2024-02-16T01:57:21;21.27;;;16.60;;
3095;SDS011;1558;42.700;23.360;2024-02-16T01:59:50;23.27;;;18.23;;
3095;SDS011;1558;42.700;23.360;2024-02-16T02:02:18;24.70;;;18.03;;
3095;SDS011;1558;42.700;23.360;2024-02-16T02:04:47;25.40;;;19.43;;
3095;SDS011;1558;42.700;23.360;2024-02-16T02:07:16;25.50;;;18.47;;
3095;SDS011;1558;42.700;23.360;2024-02-16T02:09:44;26.83;;;19.60;;
3095;SDS011;1558;42.700;23.360;2024-02-16T02:12:12;33.47;;;24.13;;
3095;SDS011;1558;42.700;23.360;2024-02-16T02:14:41;34.77;;;24.07;;
3095;SDS011;1558;42.700;23.360;2024-02-16T02:17:10;29.50;;;22.73;;
3095;SDS011;1558;42.700;23.360;2024-02-16T02:19:38;28.43;;;22.50;;
3095;SDS011;1558;42.700;23.360;2024-02-16T02:22:11;27.97;;;20.13;;
3095;SDS011;1558;42.700;23.360;2024-02-16T02:24:41;26.90;;;22.23;;
3095;SDS011;1558;42.700;23.360;2024-02-16T02:27:10;30.00;;;23.80;;
3095;SDS011;1558;42.700;23.360;2024-02-16T02:29:39;29.87;;;24.10;;
3095;SDS011;1558;42.700;23.360;2024-02-16T02:32:08;31.23;;;23.93;;
3095;SDS011;1558;42.700;23.360;2024-02-16T02:34:37;32.10;;;23.13;;
3095;SDS011;1558;42.700;23.360;2024-02-16T02:37:05;29.83;;;22.63;;
3095;SDS011;1558;42.700;23.360;2024-02-16T02:39:35;30.07;;;23.03;;
3095;SDS011;1558;42.700;23.360;2024-02-16T02:42:03;27.03;;;20.97;;
3095;SDS011;1558;42.700;23.360;2024-02-16T02:44:33;32.93;;;22.60;;
3095;SDS011;1558;42.700;23.360;2024-02-16T02:47:01;38.73;;;25.87;;
3095;SDS011;1558;42.700;23.360;2024-02-16T02:49:29;35.97;;;26.90;;
3095;SDS011;1558;42.700;23.360;2024-02-16T02:51:59;30.87;;;24.87;;
3095;SDS011;1558;42.700;23.360;2024-02-16T02:54:28;39.40;;;27.53;;
3095;SDS011;1558;42.700;23.360;2024-02-16T02:56:57;39.20;;;28.17;;
3095;SDS011;1558;42.700;23.360;2024-02-16T02:59:26;35.77;;;26.27;;
3095;SDS011;1558;42.700;23.360;2024-02-16T03:01:54;38.03;;;27.40;;
3095;SDS011;1558;42.700;23.360;2024-02-16T03:04:22;34.67;;;26.57;;
3095;SDS011;1558;42.700;23.360;2024-02-16T03:06:51;35.33;;;27.03;;
3095;SDS011;1558;42.700;23.360;2024-02-16T03:09:20;34.30;;;25.47;;
3095;SDS011;1558;42.700;23.360;2024-02-16T03:11:49;37.17;;;26.27;;
3095;SDS011;1558;42.700;23.360;2024-02-16T03:14:18;38.47;;;28.47;;
3095;SDS011;1558;42.700;23.360;2024-02-16T03:16:47;35.37;;;28.17;;
3095;SDS011;1558;42.700;23.360;2024-02-16T03:19:15;35.03;;;26.77;;
3095;SDS011;1558;42.700;23.360;2024-02-16T03:21:43;38.53;;;29.70;;
3095;SDS011;1558;42.700;23.360;2024-02-16T03:24:11;31.23;;;25.20;;
3095;SDS011;1558;42.700;23.360;2024-02-16T03:26:39;33.37;;;26.77;;
3095;SDS011;1558;42.700;23.360;2024-02-16T03:29:08;37.03;;;28.50;;
3095;SDS011;1558;42.700;23.360;2024-02-16T03:31:37;35.07;;;26.53;;
3095;SDS011;1558;42.700;23.360;2024-02-16T03:34:23;39.07;;;27.87;;
3095;SDS011;1558;42.700;23.360;2024-02-16T03:36:51;38.27;;;27.07;;
3095;SDS011;1558;42.700;23.360;2024-02-16T03:39:20;30.23;;;24.57;;
3095;SDS011;1558;42.700;23.360;2024-02-16T03:41:49;32.87;;;24.23;;
3095;SDS011;1558;42.700;23.360;2024-02-16T03:44:17;39.43;;;28.67;;
3095;SDS011;1558;42.700;23.360;2024-02-16T03:46:46;27.93;;;22.57;;
3095;SDS011;1558;42.700;23.360;2024-02-16T03:49:15;30.67;;;23.93;;
3095;SDS011;1558;42.700;23.360;2024-02-16T03:51:43;27.43;;;19.50;;
3095;SDS011;1558;42.700;23.360;2024-02-16T03:54:12;26.60;;;21.90;;
3095;SDS011;1558;42.700;23.360;2024-02-16T03:56:40;35.23;;;27.17;;
3095;SDS011;1558;42.700;23.360;2024-02-16T03:59:08;31.30;;;23.87;;
3095;SDS011;1558;42.700;23.360;2024-02-16T04:01:37;28.67;;;21.40;;
3095;SDS011;1558;42.700;23.360;2024-02-16T04:04:07;37.13;;;25.60;;
3095;SDS011;1558;42.700;23.360;2024-02-16T04:06:35;34.07;;;26.87;;
3095;SDS011;1558;42.700;23.360;2024-02-16T04:09:03;38.07;;;27.30;;
3095;SDS011;1558;42.700;23.360;2024-02-16T04:11:33;47.03;;;24.77;;
3095;SDS011;1558;42.700;23.360;2024-02-16T04:14:01;38.17;;;26.10;;
3095;SDS011;1558;42.700;23.360;2024-02-16T04:16:30;39.70;;;26.70;;
3095;SDS011;1558;42.700;23.360;2024-02-16T04:18:58;41.17;;;28.17;;
3095;SDS011;1558;42.700;23.360;2024-02-16T04:21:28;46.77;;;31.97;;
3095;SDS011;1558;42.700;23.360;2024-02-16T04:23:56;43.93;;;31.70;;
3095;SDS011;1558;42.700;23.360;2024-02-16T04:26:24;44.77;;;30.47;;
3095;SDS011;1558;42.700;23.360;2024-02-16T04:28:52;44.00;;;31.13;;
3095;SDS011;1558;42.700;23.360;2024-02-16T04:31:21;46.40;;;34.10;;
3095;SDS011;1558;42.700;23.360;2024-02-16T04:33:49;41.40;;;32.43;;
3095;SDS011;1558;42.700;23.360;2024-02-16T04:36:18;46.03;;;29.60;;
3095;SDS011;1558;42.700;23.360;2024-02-16T04:38:47;43.53;;;32.83;;
3095;SDS011;1558;42.700;23.360;2024-02-16T04:41:15;43.43;;;31.73;;
3095;SDS011;1558;42.700;23.360;2024-02-16T04:43:44;36.50;;;29.93;;
3095;SDS011;1558;42.700;23.360;2024-02-16T04:46:13;43.27;;;30.63;;
3095;SDS011;1558;42.700;23.360;2024-02-16T04:48:42;38.60;;;29.10;;
3095;SDS011;1558;42.700;23.360;2024-02-16T04:51:10;34.67;;;25.73;;
3095;SDS011;1558;42.700;23.360;2024-02-16T04:53:39;33.60;;;26.80;;
3095;SDS011;1558;42.700;23.360;2024-02-16T04:56:09;33.00;;;28.17;;
3095;SDS011;1558;42.700;23.360;2024-02-16T04:58:39;35.77;;;28.70;;
3095;SDS011;1558;42.700;23.360;2024-02-16T05:01:08;37.77;;;30.60;;
3095;SDS011;1558;42.700;23.360;2024-02-16T05:03:36;41.17;;;28.67;;
3095;SDS011;1558;42.700;23.360;2024-02-16T05:06:07;40.47;;;32.00;;
3095;SDS011;1558;42.700;23.360;2024-02-16T05:08:35;42.00;;;31.03;;
3095;SDS011;1558;42.700;23.360;2024-02-16T05:11:03;40.33;;;29.40;;
3095;SDS011;1558;42.700;23.360;2024-02-16T05:13:36;38.43;;;32.23;;
3095;SDS011;1558;42.700;23.360;2024-02-16T05:16:07;39.90;;;30.97;;
3095;SDS011;1558;42.700;23.360;2024-02-16T05:18:36;40.13;;;30.70;;
3095;SDS011;1558;42.700;23.360;2024-02-16T05:21:04;43.50;;;31.80;;
3095;SDS011;1558;42.700;23.360;2024-02-16T05:23:33;49.03;;;35.37;;
3095;SDS011;1558;42.700;23.360;2024-02-16T05:26:01;52.50;;;37.50;;
3095;SDS011;1558;42.700;23.360;2024-02-16T05:28:29;60.57;;;43.37;;
3095;SDS011;1558;42.700;23.360;2024-02-16T05:30:59;66.07;;;49.73;;
3095;SDS011;1558;42.700;23.360;2024-02-16T05:33:41;60.17;;;44.93;;
3095;SDS011;1558;42.700;23.360;2024-02-16T05:36:09;59.33;;;42.50;;
3095;SDS011;1558;42.700;23.360;2024-02-16T05:38:38;53.87;;;42.10;;
3095;SDS011;1558;42.700;23.360;2024-02-16T05:41:09;58.07;;;40.40;;
3095;SDS011;1558;42.700;23.360;2024-02-16T05:43:38;52.83;;;37.13;;
3095;SDS011;1558;42.700;23.360;2024-02-16T05:46:12;59.57;;;39.33;;
3095;SDS011;1558;42.700;23.360;2024-02-16T05:48:41;50.00;;;36.10;;
3095;SDS011;1558;42.700;23.360;2024-02-16T05:51:09;53.03;;;35.43;;
3095;SDS011;1558;42.700;23.360;2024-02-16T05:53:39;51.73;;;34.57;;
3095;SDS011;1558;42.700;23.360;2024-02-16T05:56:08;58.33;;;37.67;;
3095;SDS011;1558;42.700;23.360;2024-02-16T05:58:38;51.77;;;37.13;;
3095;SDS011;1558;42.700;23.360;2024-02-16T06:01:06;52.03;;;37.63;;
3095;SDS011;1558;42.700;23.360;2024-02-16T06:03:38;51.70;;;36.70;;
3095;SDS011;1558;42.700;23.360;2024-02-16T06:06:08;56.63;;;37.70;;
3095;SDS011;1558;42.700;23.360;2024-02-16T06:08:37;53.90;;;39.90;;
3095;SDS011;1558;42.700;23.360;2024-02-16T06:11:06;46.17;;;34.27;;
3095;SDS011;1558;42.700;23.360;2024-02-16T06:13:35;51.97;;;36.77;;
3095;SDS011;1558;42.700;23.360;2024-02-16T06:16:04;48.07;;;35.60;;
3095;SDS011;1558;42.700;23.360;2024-02-16T06:18:35;29.80;;;23.60;;
3095;SDS011;1558;42.700;23.360;2024-02-16T06:21:05;30.70;;;21.60;;
3095;SDS011;1558;42.700;23.360;2024-02-16T06:23:33;27.93;;;21.53;;
3095;SDS011;1558;42.700;23.360;2024-02-16T06:26:01;26.07;;;20.83;;
3095;SDS011;1558;42.700;23.360;2024-02-16T06:28:29;23.87;;;20.70;;
3095;SDS011;1558;42.700;23.360;2024-02-16T06:30:57;33.67;;;25.57;;
3095;SDS011;1558;42.700;23.360;2024-02-16T06:33:25;33.73;;;24.23;;
3095;SDS011;1558;42.700;23.360;2024-02-16T06:35:54;26.67;;;21.33;;
3095;SDS011;1558;42.700;23.360;2024-02-16T06:38:24;36.67;;;27.17;;
3095;SDS011;1558;42.700;23.360;2024-02-16T06:40:52;34.60;;;28.87;;
3095;SDS011;1558;42.700;23.360;2024-02-16T06:43:20;39.87;;;27.37;;
3095;SDS011;1558;42.700;23.360;2024-02-16T06:45:48;34.80;;;26.00;;
3095;SDS011;1558;42.700;23.360;2024-02-16T06:48:17;43.80;;;29.33;;
3095;SDS011;1558;42.700;23.360;2024-02-16T06:50:45;35.50;;;25.77;;
3095;SDS011;1558;42.700;23.360;2024-02-16T06:53:14;32.47;;;26.13;;
3095;SDS011;1558;42.700;23.360;2024-02-16T06:55:44;39.80;;;27.00;;
3095;SDS011;1558;42.700;23.360;2024-02-16T06:58:12;32.97;;;26.13;;
3095;SDS011;1558;42.700;23.360;2024-02-16T07:00:40;29.70;;;25.67;;
3095;SDS011;1558;42.700;23.360;2024-02-16T07:03:09;44.67;;;28.90;;
3095;SDS011;1558;42.700;23.360;2024-02-16T07:05:37;35.03;;;30.00;;
3095;SDS011;1558;42.700;23.360;2024-02-16T07:08:06;38.63;;;28.80;;
3095;SDS011;1558;42.700;23.360;2024-02-16T07:10:35;41.67;;;29.40;;
3095;SDS011;1558;42.700;23.360;2024-02-16T07:13:05;43.37;;;30.23;;
3095;SDS011;1558;42.700;23.360;2024-02-16T07:15:33;53.67;;;37.67;;
3095;SDS011;1558;42.700;23.360;2024-02-16T07:18:01;52.90;;;33.33;;
3095;SDS011;1558;42.700;23.360;2024-02-16T07:20:30;42.23;;;30.17;;
3095;SDS011;1558;42.700;23.360;2024-02-16T07:22:58;36.00;;;29.30;;
3095;SDS011;1558;42.700;23.360;2024-02-16T07:25:27;31.80;;;25.93;;
3095;SDS011;1558;42.700;23.360;2024-02-16T07:27:55;36.90;;;25.73;;
3095;SDS011;1558;42.700;23.360;2024-02-16T07:30:25;40.23;;;27.23;;
3095;SDS011;1558;42.700;23.360;2024-02-16T07:33:05;35.43;;;24.97;;
3095;SDS011;1558;42.700;23.360;2024-02-16T07:35:33;25.43;;;21.90;;
3095;SDS011;1558;42.700;23.360;2024-02-16T07:38:02;34.97;;;24.60;;
3095;SDS011;1558;42.700;23.360;2024-02-16T07:40:30;30.67;;;23.83;;
3095;SDS011;1558;42.700;23.360;2024-02-16T07:42:59;35.60;;;30.00;;
3095;SDS011;1558;42.700;23.360;2024-02-16T07:45:29;36.13;;;26.37;;
3095;SDS011;1558;42.700;23.360;2024-02-16T07:47:57;33.20;;;27.80;;
3095;SDS011;1558;42.700;23.360;2024-02-16T07:50:31;32.33;;;25.63;;
3095;SDS011;1558;42.700;23.360;2024-02-16T07:52:59;37.40;;;26.60;;
3095;SDS011;1558;42.700;23.360;2024-02-16T07:55:28;34.83;;;25.93;;
3095;SDS011;1558;42.700;23.360;2024-02-16T07:57:57;32.77;;;27.70;;
3095;SDS011;1558;42.700;23.360;2024-02-16T08:00:25;44.07;;;28.83;;
3095;SDS011;1558;42.700;23.360;2024-02-16T08:02:55;42.03;;;31.60;;
3095;SDS011;1558;42.700;23.360;2024-02-16T08:05:24;38.27;;;31.57;;
3095;SDS011;1558;42.700;23.360;2024-02-16T08:07:53;38.47;;;29.90;;
3095;SDS011;1558;42.700;23.360;2024-02-16T08:10:22;41.63;;;29.17;;
3095;SDS011;1558;42.700;23.360;2024-02-16T08:12:51;38.40;;;28.97;;
3095;SDS011;1558;42.700;23.360;2024-02-16T08:15:20;36.93;;;29.33;;
3095;SDS011;1558;42.700;23.360;2024-02-16T08:17:51;36.07;;;28.20;;
3095;SDS011;1558;42.700;23.360;2024-02-16T08:20:21;35.07;;;27.23;;
3095;SDS011;1558;42.700;23.360;2024-02-16T08:22:50;30.13;;;26.20;;
3095;SDS011;1558;42.700;23.360;2024-02-16T08:25:18;31.13;;;27.20;;
3095;SDS011;1558;42.700;23.360;2024-02-16T08:27:46;75.80;;;31.97;;
3095;SDS011;1558;42.700;23.360;2024-02-16T08:30:16;37.07;;;25.97;;
3095;SDS011;1558;42.700;23.360;2024-02-16T08:32:44;41.10;;;25.90;;
3095;SDS011;1558;42.700;23.360;2024-02-16T08:35:12;36.40;;;25.57;;
3095;SDS011;1558;42.700;23.360;2024-02-16T08:37:45;33.67;;;25.50;;
3095;SDS011;1558;42.700;23.360;2024-02-16T08:40:13;33.67;;;25.60;;
3095;SDS011;1558;42.700;23.360;2024-02-16T08:42:41;38.07;;;25.60;;
3095;SDS011;1558;42.700;23.360;2024-02-16T08:45:10;33.90;;;26.20;;
3095;SDS011;1558;42.700;23.360;2024-02-16T08:47:40;44.40;;;26.80;;
3095;SDS011;1558;42.700;23.360;2024-02-16T08:50:08;39.77;;;27.50;;
3095;SDS011;1558;42.700;23.360;2024-02-16T08:52:37;35.27;;;26.80;;
3095;SDS011;1558;42.700;23.360;2024-02-16T08:55:08;28.57;;;25.03;;
3095;SDS011;1558;42.700;23.360;2024-02-16T08:57:36;29.60;;;25.43;;
3095;SDS011;1558;42.700;23.360;2024-02-16T09:00:05;35.77;;;26.00;;
3095;SDS011;1558;42.700;23.360;2024-02-16T09:02:34;35.47;;;25.77;;
3095;SDS011;1558;42.700;23.360;2024-02-16T09:05:03;148.00;;;33.47;;
3095;SDS011;1558;42.700;23.360;2024-02-16T09:07:32;65.22;;;28.52;;
3095;SDS011;1558;42.700;23.360;2024-02-16T09:10:00;75.15;;;28.67;;
3095;SDS011;1558;42.700;23.360;2024-02-16T09:12:30;61.10;;;28.35;;
3095;SDS011;1558;42.700;23.360;2024-02-16T09:14:58;44.58;;;28.55;;
3095;SDS011;1558;42.700;23.360;2024-02-16T09:17:26;35.25;;;26.83;;
3095;SDS011;1558;42.700;23.360;2024-02-16T09:19:55;146.48;;;37.95;;
3095;SDS011;1558;42.700;23.360;2024-02-16T09:22:23;41.03;;;26.55;;
3095;SDS011;1558;42.700;23.360;2024-02-16T09:24:54;34.55;;;27.00;;
3095;SDS011;1558;42.700;23.360;2024-02-16T09:27:26;45.97;;;28.33;;
3095;SDS011;1558;42.700;23.360;2024-02-16T09:29:56;27.23;;;20.80;;
3095;SDS011;1558;42.700;23.360;2024-02-16T09:32:24;28.27;;;20.55;;
3095;SDS011;1558;42.700;23.360;2024-02-16T09:34:52;24.35;;;19.30;;
3095;SDS011;1558;42.700;23.360;2024-02-16T09:37:22;18.02;;;15.23;;
3095;SDS011;1558;42.700;23.360;2024-02-16T09:39:50;18.77;;;16.63;;
3095;SDS011;1558;42.700;23.360;2024-02-16T09:42:21;19.60;;;14.93;;
3095;SDS011;1558;42.700;23.360;2024-02-16T09:44:53;15.45;;;13.82;;
3095;SDS011;1558;42.700;23.360;2024-02-16T09:47:23;14.40;;;12.77;;
3095;SDS011;1558;42.700;23.360;2024-02-16T09:49:55;34.83;;;15.45;;
3095;SDS011;1558;42.700;23.360;2024-02-16T09:52:24;23.98;;;13.50;;
3095;SDS011;1558;42.700;23.360;2024-02-16T09:54:52;21.85;;;12.45;;
3095;SDS011;1558;42.700;23.360;2024-02-16T09:57:20;12.38;;;9.55;;
3095;SDS011;1558;42.700;23.360;2024-02-16T09:59:49;13.65;;;7.95;;
3095;SDS011;1558;42.700;23.360;2024-02-16T10:02:19;10.73;;;6.63;;
3095;SDS011;1558;42.700;23.360;2024-02-16T10:04:47;12.93;;;5.68;;
3095;SDS011;1558;42.700;23.360;2024-02-16T10:07:15;11.07;;;5.65;;
3095;SDS011;1558;42.700;23.360;2024-02-16T10:09:44;10.13;;;7.28;;
3095;SDS011;1558;42.700;23.360;2024-02-16T10:12:17;20.25;;;7.20;;
3095;SDS011;1558;42.700;23.360;2024-02-16T10:14:53;15.20;;;8.23;;
3095;SDS011;1558;42.700;23.360;2024-02-16T10:17:24;11.95;;;8.98;;
3095;SDS011;1558;42.700;23.360;2024-02-16T10:19:58;17.55;;;8.65;;
3095;SDS011;1558;42.700;23.360;2024-02-16T10:22:29;9.85;;;7.57;;
3095;SDS011;1558;42.700;23.360;2024-02-16T10:25:14;13.18;;;7.65;;
3095;SDS011;1558;42.700;23.360;2024-02-16T10:27:45;11.73;;;7.10;;
3095;SDS011;1558;42.700;23.360;2024-02-16T10:30:14;7.22;;;6.60;;
3095;SDS011;1558;42.700;23.360;2024-02-16T10:32:45;10.02;;;7.22;;
3095;SDS011;1558;42.700;23.360;2024-02-16T10:35:14;13.90;;;7.35;;
3095;SDS011;1558;42.700;23.360;2024-02-16T10:37:44;11.45;;;7.32;;
3095;SDS011;1558;42.700;23.360;2024-02-16T10:40:13;15.07;;;8.48;;
3095;SDS011;1558;42.700;23.360;2024-02-16T10:42:45;8.57;;;7.60;;
3095;SDS011;1558;42.700;23.360;2024-02-16T10:45:13;18.10;;;8.50;;
3095;SDS011;1558;42.700;23.360;2024-02-16T10:47:44;12.45;;;7.43;;
3095;SDS011;1558;42.700;23.360;2024-02-16T10:50:12;18.48;;;10.50;;
3095;SDS011;1558;42.700;23.360;2024-02-16T10:52:41;11.30;;;9.13;;
3095;SDS011;1558;42.700;23.360;2024-02-16T10:55:12;8.15;;;5.65;;
3095;SDS011;1558;42.700;23.360;2024-02-16T10:57:43;15.07;;;6.30;;
3095;SDS011;1558;42.700;23.360;2024-02-16T11:00:13;10.38;;;7.90;;
3095;SDS011;1558;42.700;23.360;2024-02-16T11:02:52;6.78;;;5.80;;
3095;SDS011;1558;42.700;23.360;2024-02-16T11:05:34;7.50;;;6.60;;
3095;SDS011;1558;42.700;23.360;2024-02-16T11:08:04;7.68;;;6.35;;
3095;SDS011;1558;42.700;23.360;2024-02-16T11:10:33;21.10;;;7.35;;
3095;SDS011;1558;42.700;23.360;2024-02-16T11:13:01;8.18;;;5.38;;
3095;SDS011;1558;42.700;23.360;2024-02-16T11:15:32;9.43;;;6.18;;
3095;SDS011;1558;42.700;23.360;2024-02-16T11:18:02;6.25;;;5.70;;
3095;SDS011;1558;42.700;23.360;2024-02-16T11:20:36;6.60;;;5.68;;
3095;SDS011;1558;42.700;23.360;2024-02-16T11:23:05;7.53;;;5.97;;
3095;SDS011;1558;42.700;23.360;2024-02-16T11:25:34;5.35;;;4.72;;
3095;SDS011;1558;42.700;23.360;2024-02-16T11:28:04;5.30;;;4.90;;
3095;SDS011;1558;42.700;23.360;2024-02-16T11:30:33;7.00;;;5.13;;
3095;SDS011;1558;42.700;23.360;2024-02-16T11:33:04;7.70;;;5.50;;
3095;SDS011;1558;42.700;23.360;2024-02-16T11:35:33;6.40;;;5.70;;
3095;SDS011;1558;42.700;23.360;2024-02-16T11:38:01;7.25;;;5.32;;
3095;SDS011;1558;42.700;23.360;2024-02-16T11:40:29;10.50;;;6.30;;
3095;SDS011;1558;42.700;23.360;2024-02-16T11:42:58;11.45;;;6.28;;
3095;SDS011;1558;42.700;23.360;2024-02-16T11:45:26;6.57;;;5.90;;
3095;SDS011;1558;42.700;23.360;2024-02-16T11:48:06;6.22;;;4.90;;
3095;SDS011;1558;42.700;23.360;2024-02-16T11:50:36;10.48;;;5.80;;
3095;SDS011;1558;42.700;23.360;2024-02-16T11:53:05;5.78;;;5.28;;
3095;SDS011;1558;42.700;23.360;2024-02-16T11:55:34;16.42;;;6.07;;
3095;SDS011;1558;42.700;23.360;2024-02-16T11:58:02;9.35;;;5.82;;
3095;SDS011;1558;42.700;23.360;2024-02-16T12:00:30;11.10;;;6.10;;
3095;SDS011;1558;42.700;23.360;2024-02-16T12:02:59;12.45;;;6.45;;
3095;SDS011;1558;42.700;23.360;2024-02-16T12:05:29;6.63;;;5.38;;
3095;SDS011;1558;42.700;23.360;2024-02-16T12:07:58;5.82;;;5.22;;
3095;SDS011;1558;42.700;23.360;2024-02-16T12:10:27;6.72;;;5.72;;
3095;SDS011;1558;42.700;23.360;2024-02-16T12:12:56;6.88;;;5.97;;
3095;SDS011;1558;42.700;23.360;2024-02-16T12:15:31;6.35;;;5.75;;
3095;SDS011;1558;42.700;23.360;2024-02-16T12:18:00;9.40;;;6.90;;
3095;SDS011;1558;42.700;23.360;2024-02-16T12:20:30;11.95;;;7.22;;
3095;SDS011;1558;42.700;23.360;2024-02-16T12:22:59;7.93;;;6.13;;
3095;SDS011;1558;42.700;23.360;2024-02-16T12:25:28;6.07;;;5.50;;
3095;SDS011;1558;42.700;23.360;2024-02-16T12:27:56;8.85;;;6.50;;
3095;SDS011;1558;42.700;23.360;2024-02-16T12:30:24;9.85;;;6.20;;
3095;SDS011;1558;42.700;23.360;2024-02-16T12:32:53;9.90;;;6.60;;
3095;SDS011;1558;42.700;23.360;2024-02-16T12:35:21;10.40;;;6.40;;
3095;SDS011;1558;42.700;23.360;2024-02-16T12:37:52;8.98;;;5.95;;
3095;SDS011;1558;42.700;23.360;2024-02-16T12:40:20;6.45;;;5.20;;
3095;SDS011;1558;42.700;23.360;2024-02-16T12:42:48;6.28;;;5.65;;
3095;SDS011;1558;42.700;23.360;2024-02-16T12:45:16;6.35;;;5.60;;
3095;SDS011;1558;42.700;23.360;2024-02-16T12:47:45;17.48;;;7.57;;
3095;SDS011;1558;42.700;23.360;2024-02-16T12:50:13;9.20;;;6.32;;
3095;SDS011;1558;42.700;23.360;2024-02-16T12:52:42;9.60;;;6.57;;
3095;SDS011;1558;42.700;23.360;2024-02-16T12:55:25;11.65;;;6.93;;
3095;SDS011;1558;42.700;23.360;2024-02-16T12:57:54;6.25;;;5.40;;
3095;SDS011;1558;42.700;23.360;2024-02-16T13:00:23;6.70;;;6.00;;
3095;SDS011;1558;42.700;23.360;2024-02-16T13:02:51;6.70;;;5.90;;
3095;SDS011;1558;42.700;23.360;2024-02-16T13:05:19;8.15;;;6.90;;
3095;SDS011;1558;42.700;23.360;2024-02-16T13:07:48;7.72;;;6.22;;
3095;SDS011;1558;42.700;23.360;2024-02-16T13:10:16;7.22;;;6.53;;
3095;SDS011;1558;42.700;23.360;2024-02-16T13:12:46;10.63;;;6.88;;
3095;SDS011;1558;42.700;23.360;2024-02-16T13:15:15;13.15;;;7.05;;
3095;SDS011;1558;42.700;23.360;2024-02-16T13:17:54;9.82;;;5.80;;
3095;SDS011;1558;42.700;23.360;2024-02-16T13:20:22;6.47;;;5.70;;
3095;SDS011;1558;42.700;23.360;2024-02-16T13:22:51;6.03;;;5.30;;
3095;SDS011;1558;42.700;23.360;2024-02-16T13:25:20;6.07;;;5.50;;
3095;SDS011;1558;42.700;23.360;2024-02-16T13:27:50;5.13;;;4.63;;
3095;SDS011;1558;42.700;23.360;2024-02-16T13:30:18;13.15;;;6.18;;
3095;SDS011;1558;42.700;23.360;2024-02-16T13:32:46;4.90;;;4.45;;
3095;SDS011;1558;42.700;23.360;2024-02-16T13:35:15;5.07;;;4.57;;
3095;SDS011;1558;42.700;23.360;2024-02-16T13:37:47;5.20;;;4.70;;
3095;SDS011;1558;42.700;23.360;2024-02-16T13:40:15;5.25;;;4.75;;
3095;SDS011;1558;42.700;23.360;2024-02-16T13:42:44;8.23;;;5.18;;
3095;SDS011;1558;42.700;23.360;2024-02-16T13:45:14;10.48;;;5.88;;
3095;SDS011;1558;42.700;23.360;2024-02-16T13:47:42;9.88;;;5.35;;
3095;SDS011;1558;42.700;23.360;2024-02-16T13:50:11;13.40;;;6.15;;
3095;SDS011;1558;42.700;23.360;2024-02-16T13:52:39;15.90;;;11.18;;
3095;SDS011;1558;42.700;23.360;2024-02-16T13:55:08;16.73;;;7.27;;
3095;SDS011;1558;42.700;23.360;2024-02-16T13:57:36;6.23;;;5.10;;
3095;SDS011;1558;42.700;23.360;2024-02-16T14:00:06;12.03;;;5.80;;
3095;SDS011;1558;42.700;23.360;2024-02-16T14:02:37;8.87;;;5.27;;
3095;SDS011;1558;42.700;23.360;2024-02-16T14:05:05;9.83;;;5.63;;
3095;SDS011;1558;42.700;23.360;2024-02-16T14:07:34;7.20;;;4.80;;
3095;SDS011;1558;42.700;23.360;2024-02-16T14:10:15;7.83;;;5.53;;
3095;SDS011;1558;42.700;23.360;2024-02-16T14:12:44;13.20;;;5.87;;
3095;SDS011;1558;42.700;23.360;2024-02-16T14:15:13;19.90;;;6.67;;
3095;SDS011;1558;42.700;23.360;2024-02-16T14:17:44;12.73;;;6.37;;
3095;SDS011;1558;42.700;23.360;2024-02-16T14:20:12;5.83;;;4.90;;
3095;SDS011;1558;42.700;23.360;2024-02-16T14:22:41;17.63;;;9.13;;
3095;SDS011;1558;42.700;23.360;2024-02-16T14:25:10;9.63;;;5.47;;
3095;SDS011;1558;42.700;23.360;2024-02-16T14:27:40;12.67;;;6.10;;
3095;SDS011;1558;42.700;23.360;2024-02-16T14:30:09;15.40;;;5.93;;
3095;SDS011;1558;42.700;23.360;2024-02-16T14:32:38;11.27;;;5.43;;
3095;SDS011;1558;42.700;23.360;2024-02-16T14:35:09;11.13;;;6.57;;
3095;SDS011;1558;42.700;23.360;2024-02-16T14:37:37;23.23;;;8.33;;
3095;SDS011;1558;42.700;23.360;2024-02-16T14:40:06;11.23;;;7.60;;
3095;SDS011;1558;42.700;23.360;2024-02-16T14:42:39;12.40;;;7.67;;
3095;SDS011;1558;42.700;23.360;2024-02-16T14:45:07;11.50;;;6.73;;
3095;SDS011;1558;42.700;23.360;2024-02-16T14:47:47;8.43;;;5.87;;
3095;SDS011;1558;42.700;23.360;2024-02-16T14:50:17;16.97;;;6.90;;
3095;SDS011;1558;42.700;23.360;2024-02-16T14:52:45;8.67;;;6.80;;